createdAt,value
2022-11-26T00:01:29.972Z,25.67
2022-11-26T00:03:59.379Z,27.35
2022-11-26T00:06:29.864Z,30.50
2022-11-26T00:08:57.320Z,31.88
2022-11-26T00:11:24.905Z,30.15
2022-11-26T00:13:52.449Z,28.88
2022-11-26T00:16:20.085Z,25.95
2022-11-26T00:18:49.009Z,31.65
2022-11-26T00:21:18.385Z,32.40
2022-11-26T00:23:46.181Z,31.40
2022-11-26T00:26:15.513Z,27.60
2022-11-26T00:28:46.847Z,36.60
2022-11-26T00:33:41.780Z,30.85
2022-11-26T00:36:15.086Z,31.25
2022-11-26T00:38:42.815Z,31.85
2022-11-26T00:41:13.734Z,32.08
2022-11-26T00:43:41.305Z,36.20
2022-11-26T00:46:10.483Z,34.28
2022-11-26T00:48:37.988Z,37.47
2022-11-26T00:51:05.567Z,33.10
2022-11-26T00:53:34.463Z,33.35
2022-11-26T00:56:01.950Z,37.00
2022-11-26T00:58:30.518Z,34.85
2022-11-26T01:00:59.240Z,35.50
2022-11-26T01:03:27.157Z,35.90
2022-11-26T01:05:55.418Z,30.27
2022-11-26T01:08:27.571Z,28.80
2022-11-26T01:10:56.464Z,32.72
2022-11-26T01:13:24.073Z,40.33
2022-11-26T01:15:51.573Z,33.25
2022-11-26T01:18:20.089Z,36.42
2022-11-26T01:20:48.211Z,33.38
2022-11-26T01:23:16.501Z,33.67
2022-11-26T01:25:44.058Z,40.85
2022-11-26T01:28:13.384Z,32.42
2022-11-26T01:30:41.497Z,33.65
2022-11-26T01:33:08.968Z,30.08
2022-11-26T01:35:36.460Z,35.67
2022-11-26T01:38:04.308Z,39.25
2022-11-26T01:40:49.470Z,35.95
2022-11-26T01:43:23.688Z,35.72
2022-11-26T01:45:51.243Z,39.63
2022-11-26T01:48:26.327Z,38.88
2022-11-26T01:50:56.093Z,36.30
2022-11-26T01:53:29.949Z,35.88
2022-11-26T01:55:59.482Z,39.65
2022-11-26T01:58:30.181Z,42.85
2022-11-26T02:00:57.760Z,43.83
2022-11-26T02:03:25.886Z,43.10
2022-11-26T02:05:56.638Z,40.58
2022-11-26T02:08:25.445Z,36.80
2022-11-26T02:10:53.250Z,55.40
2022-11-26T02:13:20.888Z,41.13
2022-11-26T02:15:52.769Z,37.20
2022-11-26T02:18:21.375Z,39.08
2022-11-26T02:20:52.254Z,42.42
2022-11-26T02:23:46.537Z,42.85
2022-11-26T02:26:26.930Z,44.35
2022-11-26T02:29:14.695Z,42.42
2022-11-26T02:31:46.893Z,40.30
2022-11-26T02:34:16.131Z,46.17
2022-11-26T02:36:47.010Z,44.08
2022-11-26T02:39:15.128Z,49.25
2022-11-26T02:41:43.263Z,43.50
2022-11-26T02:44:11.128Z,45.25
2022-11-26T02:46:39.362Z,51.50
2022-11-26T02:49:08.794Z,43.45
2022-11-26T02:51:36.457Z,37.83
2022-11-26T02:54:04.197Z,44.28
2022-11-26T02:56:32.583Z,43.40
2022-11-26T02:59:00.380Z,48.50
2022-11-26T03:01:31.785Z,44.10
2022-11-26T03:04:02.914Z,45.53
2022-11-26T03:06:33.825Z,47.92
2022-11-26T03:09:01.786Z,47.22
2022-11-26T03:11:29.383Z,52.55
2022-11-26T03:13:56.911Z,49.47
2022-11-26T03:16:24.456Z,47.63
2022-11-26T03:18:51.932Z,52.55
2022-11-26T03:21:19.418Z,55.42
2022-11-26T03:23:48.345Z,56.95
2022-11-26T03:26:15.838Z,53.40
2022-11-26T03:28:43.357Z,58.42
2022-11-26T03:31:10.863Z,65.30
2022-11-26T03:33:38.424Z,63.97
2022-11-26T03:36:06.061Z,56.42
2022-11-26T03:38:33.516Z,63.85
2022-11-26T03:41:03.409Z,58.65
2022-11-26T03:43:30.907Z,61.50
2022-11-26T03:45:58.384Z,63.38
2022-11-26T03:48:25.905Z,61.75
2022-11-26T03:50:53.401Z,64.47
2022-11-26T03:53:20.977Z,59.88
2022-11-26T03:55:48.482Z,62.20
2022-11-26T03:58:17.289Z,56.80
2022-11-26T04:00:44.782Z,66.70
2022-11-26T04:03:12.283Z,60.97
2022-11-26T04:05:39.776Z,64.70
2022-11-26T04:08:07.296Z,54.72
2022-11-26T04:10:34.850Z,57.83
2022-11-26T04:13:02.497Z,68.78
2022-11-26T04:15:31.335Z,70.60
2022-11-26T04:17:58.795Z,64.70
2022-11-26T04:20:26.234Z,65.78
2022-11-26T04:22:53.686Z,64.00
2022-11-26T04:25:21.173Z,68.72
2022-11-26T04:27:48.670Z,69.40
2022-11-26T04:30:16.811Z,71.55
2022-11-26T04:32:45.741Z,66.32
2022-11-26T04:35:13.186Z,61.88
2022-11-26T04:37:40.651Z,64.20
2022-11-26T04:40:08.908Z,71.30
2022-11-26T04:42:36.424Z,60.65
2022-11-26T04:45:04.028Z,72.72
2022-11-26T04:47:31.529Z,78.18
2022-11-26T04:50:00.509Z,64.88
2022-11-26T04:52:28.047Z,65.43
2022-11-26T04:54:55.545Z,54.28
2022-11-26T04:57:23.038Z,66.15
2022-11-26T04:59:54.056Z,67.47
2022-11-26T05:02:21.595Z,64.95
2022-11-26T05:04:49.112Z,55.50
2022-11-26T05:07:18.086Z,64.75
2022-11-26T05:09:45.706Z,57.40
2022-11-26T05:12:13.261Z,52.70
2022-11-26T05:14:40.932Z,53.15
2022-11-26T05:17:08.611Z,55.20
2022-11-26T05:19:36.080Z,63.80
2022-11-26T05:22:03.564Z,57.47
2022-11-26T05:24:32.430Z,57.38
2022-11-26T05:26:59.909Z,60.88
2022-11-26T05:29:27.532Z,49.72
2022-11-26T05:31:55.011Z,50.05
2022-11-26T05:34:22.536Z,51.53
2022-11-26T05:36:50.007Z,51.80
2022-11-26T05:39:17.506Z,40.38
2022-11-26T05:41:46.356Z,39.05
2022-11-26T05:44:13.797Z,50.50
2022-11-26T05:46:42.201Z,45.17
2022-11-26T05:49:09.934Z,51.75
2022-11-26T05:51:37.492Z,47.80
2022-11-26T05:54:05.118Z,44.10
2022-11-26T05:56:32.593Z,40.10
2022-11-26T05:59:01.429Z,39.35
2022-11-26T06:01:28.933Z,46.60
2022-11-26T06:03:56.505Z,40.30
2022-11-26T06:06:24.460Z,43.85
2022-11-26T06:08:52.173Z,40.83
2022-11-26T06:11:19.835Z,49.13
2022-11-26T06:13:47.255Z,49.10
2022-11-26T06:16:16.167Z,40.38
2022-11-26T06:18:43.666Z,36.70
2022-11-26T06:21:11.223Z,43.35
2022-11-26T06:23:38.713Z,37.25
2022-11-26T06:26:08.459Z,40.78
2022-11-26T06:28:36.166Z,48.00
2022-11-26T06:31:03.869Z,43.83
2022-11-26T06:33:33.126Z,42.38
2022-11-26T06:36:01.277Z,42.50
2022-11-26T06:38:28.857Z,44.15
2022-11-26T06:41:00.147Z,37.08
2022-11-26T06:45:55.198Z,37.60
2022-11-26T06:48:25.933Z,42.00
2022-11-26T06:50:54.789Z,40.47
2022-11-26T06:53:22.329Z,35.20
2022-11-26T06:55:49.874Z,35.92
2022-11-26T06:58:17.381Z,37.65
2022-11-26T07:00:44.984Z,33.42
2022-11-26T07:03:12.436Z,38.67
2022-11-26T07:05:39.922Z,39.10
2022-11-26T07:08:08.751Z,31.88
2022-11-26T07:10:36.216Z,36.13
2022-11-26T07:13:03.698Z,35.47
2022-11-26T07:15:31.231Z,31.70
2022-11-26T07:17:59.240Z,33.25
2022-11-26T07:20:26.921Z,35.80
2022-11-26T07:22:54.684Z,32.50
2022-11-26T07:25:23.640Z,34.30
2022-11-26T07:27:51.102Z,34.47
2022-11-26T07:30:18.775Z,38.83
2022-11-26T07:32:46.277Z,34.25
2022-11-26T07:35:13.716Z,39.33
2022-11-26T07:37:41.224Z,34.78
2022-11-26T07:40:09.178Z,34.13
2022-11-26T07:42:38.081Z,37.47
2022-11-26T07:45:06.017Z,41.65
2022-11-26T07:47:33.483Z,34.35
2022-11-26T07:50:01.152Z,48.17
2022-11-26T07:52:28.661Z,36.88
2022-11-26T07:54:56.140Z,43.40
2022-11-26T07:57:23.850Z,42.50
2022-11-26T07:59:52.725Z,45.70
2022-11-26T08:02:20.223Z,36.10
2022-11-26T08:04:47.839Z,34.75
2022-11-26T08:07:22.046Z,51.17
2022-11-26T08:09:50.714Z,35.92
2022-11-26T08:12:18.195Z,35.75
2022-11-26T08:14:45.698Z,35.90
2022-11-26T08:17:14.571Z,40.78
2022-11-26T08:19:42.017Z,30.45
2022-11-26T08:22:09.539Z,36.63
2022-11-26T08:24:37.323Z,30.98
2022-11-26T08:27:05.123Z,32.40
2022-11-26T08:29:32.627Z,40.08
2022-11-26T08:32:00.198Z,30.42
2022-11-26T08:34:29.094Z,39.22
2022-11-26T08:36:56.545Z,30.08
2022-11-26T08:39:24.026Z,32.97
2022-11-26T08:41:52.733Z,31.33
2022-11-26T08:44:20.489Z,26.95
2022-11-26T08:46:48.053Z,29.73
2022-11-26T08:49:16.811Z,37.28
2022-11-26T08:51:45.676Z,25.63
2022-11-26T08:54:13.450Z,23.15
2022-11-26T08:56:40.979Z,28.10
2022-11-26T08:59:08.482Z,31.52
2022-11-26T09:01:36.027Z,27.95
2022-11-26T09:04:04.119Z,29.17
2022-11-26T09:06:32.824Z,33.05
2022-11-26T09:09:14.509Z,23.20
2022-11-26T09:11:43.989Z,25.55
2022-11-26T09:14:11.668Z,20.25
2022-11-26T09:16:39.507Z,25.83
2022-11-26T09:19:07.930Z,18.33
2022-11-26T09:21:35.776Z,21.15
2022-11-26T09:24:05.061Z,29.52
2022-11-26T09:26:32.931Z,19.00
2022-11-26T09:29:00.398Z,19.77
2022-11-26T09:31:28.219Z,25.92
2022-11-26T09:33:57.640Z,18.55
2022-11-26T09:36:25.190Z,26.85
2022-11-26T09:38:54.322Z,21.02
2022-11-26T09:41:31.194Z,24.10
2022-11-26T09:44:08.936Z,22.17
2022-11-26T09:49:14.198Z,16.52
2022-11-26T09:51:42.748Z,25.52
2022-11-26T09:54:10.913Z,21.38
2022-11-26T09:56:39.805Z,19.45
2022-11-26T09:59:07.782Z,14.30
2022-11-26T10:01:35.416Z,20.90
2022-11-26T10:04:03.026Z,22.70
2022-11-26T10:06:35.847Z,21.40
2022-11-26T10:09:11.594Z,26.02
2022-11-26T10:11:44.298Z,18.27
2022-11-26T10:14:29.054Z,23.73
2022-11-26T10:17:03.583Z,20.63
2022-11-26T10:19:37.782Z,23.95
2022-11-26T10:22:08.837Z,23.42
2022-11-26T10:24:40.954Z,22.88
2022-11-26T10:27:13.965Z,19.45
2022-11-26T10:29:42.914Z,19.17
2022-11-26T10:32:14.030Z,22.90
2022-11-26T10:34:43.925Z,16.77
2022-11-26T10:37:11.562Z,18.10
2022-11-26T10:39:39.009Z,16.88
2022-11-26T10:42:12.326Z,17.42
2022-11-26T10:44:42.159Z,20.60
2022-11-26T10:47:21.377Z,17.00
2022-11-26T10:49:49.480Z,17.25
2022-11-26T10:52:18.500Z,13.27
2022-11-26T10:54:47.194Z,15.82
2022-11-26T10:57:16.486Z,14.70
2022-11-26T10:59:51.238Z,16.85
2022-11-26T11:02:37.312Z,19.23
2022-11-26T11:05:06.730Z,18.40
2022-11-26T11:07:41.527Z,24.65
2022-11-26T11:10:15.328Z,15.93
2022-11-26T11:12:43.249Z,13.10
2022-11-26T11:15:19.722Z,15.18
2022-11-26T11:17:48.050Z,20.15
2022-11-26T11:20:25.676Z,23.27
2022-11-26T11:22:58.722Z,19.73
2022-11-26T11:25:27.718Z,13.55
2022-11-26T11:27:56.293Z,14.57
2022-11-26T11:30:26.256Z,16.75
2022-11-26T11:32:57.665Z,15.02
2022-11-26T11:35:26.297Z,15.18
2022-11-26T11:37:54.585Z,18.50
2022-11-26T11:40:25.424Z,13.40
2022-11-26T11:42:54.861Z,16.63
2022-11-26T11:45:23.950Z,12.77
2022-11-26T11:47:52.867Z,14.23
2022-11-26T11:50:23.183Z,19.48
2022-11-26T11:53:02.744Z,17.23
2022-11-26T11:55:37.525Z,13.43
2022-11-26T11:58:14.516Z,17.60
2022-11-26T12:00:45.866Z,13.20
2022-11-26T12:03:37.898Z,15.38
2022-11-26T12:06:10.847Z,19.33
2022-11-26T12:08:42.114Z,19.42
2022-11-26T12:11:17.494Z,20.58
2022-11-26T12:13:48.068Z,18.80
2022-11-26T12:16:17.407Z,17.20
2022-11-26T12:18:47.977Z,24.52
2022-11-26T12:21:19.113Z,18.83
2022-11-26T12:23:49.453Z,17.25
2022-11-26T12:26:19.421Z,17.17
2022-11-26T12:28:51.649Z,13.07
2022-11-26T12:31:20.925Z,18.33
2022-11-26T12:33:50.886Z,16.58
2022-11-26T12:36:21.276Z,14.88
2022-11-26T12:38:50.163Z,14.32
2022-11-26T12:41:20.083Z,20.83
2022-11-26T12:43:49.944Z,15.90
2022-11-26T12:46:19.550Z,20.67
2022-11-26T12:48:51.160Z,13.65
2022-11-26T12:51:23.962Z,15.05
2022-11-26T12:53:55.811Z,23.05
2022-11-26T12:56:26.065Z,17.20
2022-11-26T12:58:57.587Z,19.20
2022-11-26T13:01:25.247Z,15.50
2022-11-26T13:04:03.398Z,20.38
2022-11-26T13:06:47.862Z,14.77
2022-11-26T13:09:25.278Z,13.38
2022-11-26T13:11:56.210Z,17.08
2022-11-26T13:14:27.657Z,15.80
2022-11-26T13:16:58.065Z,13.40
2022-11-26T13:19:29.864Z,12.45
2022-11-26T13:22:05.733Z,9.85
2022-11-26T13:24:40.431Z,16.10
2022-11-26T13:27:18.734Z,12.55
2022-11-26T13:29:58.152Z,15.18
2022-11-26T13:32:51.171Z,14.60
2022-11-26T13:35:23.661Z,14.18
2022-11-26T13:37:57.425Z,11.98
2022-11-26T13:40:45.860Z,12.57
2022-11-26T13:43:31.206Z,13.15
2022-11-26T13:46:10.856Z,11.93
2022-11-26T13:48:41.860Z,8.02
2022-11-26T13:51:15.389Z,18.02
2022-11-26T13:53:45.909Z,12.05
2022-11-26T13:56:16.049Z,10.77
2022-11-26T13:58:45.577Z,10.40
2022-11-26T14:01:33.688Z,9.38
2022-11-26T14:04:03.350Z,17.48
2022-11-26T14:06:31.108Z,13.23
2022-11-26T14:08:59.960Z,15.82
2022-11-26T14:11:45.880Z,11.35
2022-11-26T14:14:32.451Z,11.45
2022-11-26T14:17:17.138Z,18.00
2022-11-26T14:20:04.212Z,19.55
2022-11-26T14:22:32.589Z,10.95
2022-11-26T14:25:03.155Z,13.13
2022-11-26T14:27:31.706Z,17.00
2022-11-26T14:30:00.861Z,15.70
2022-11-26T14:32:30.606Z,13.10
2022-11-26T14:34:58.962Z,13.93
2022-11-26T14:37:27.271Z,16.70
2022-11-26T14:39:58.338Z,14.20
2022-11-26T14:42:27.178Z,15.45
2022-11-26T14:45:01.228Z,14.25
2022-11-26T14:47:29.866Z,22.08
2022-11-26T14:49:58.934Z,21.23
2022-11-26T14:52:28.490Z,25.08
2022-11-26T14:54:57.677Z,21.58
2022-11-26T14:57:27.324Z,18.67
2022-11-26T15:00:00.687Z,17.80
2022-11-26T15:02:29.305Z,18.05
2022-11-26T15:05:00.682Z,17.77
2022-11-26T15:07:28.598Z,20.95
2022-11-26T15:10:03.062Z,25.83
2022-11-26T15:12:30.729Z,21.05
2022-11-26T15:14:59.802Z,24.00
2022-11-26T15:17:30.119Z,23.40
2022-11-26T15:19:58.801Z,28.15
2022-11-26T15:22:30.644Z,27.00
2022-11-26T15:24:58.169Z,18.98
2022-11-26T15:27:29.601Z,21.00
2022-11-26T15:29:57.087Z,22.90
2022-11-26T15:32:30.643Z,18.85
2022-11-26T15:34:59.852Z,19.30
2022-11-26T15:37:28.111Z,23.45
2022-11-26T15:40:09.533Z,23.77
2022-11-26T15:42:37.138Z,21.50
2022-11-26T15:45:05.082Z,19.95
2022-11-26T15:47:33.889Z,28.17
2022-11-26T15:50:01.400Z,21.52
2022-11-26T15:52:32.715Z,26.98
2022-11-26T15:55:12.645Z,24.20
2022-11-26T15:57:42.075Z,19.30
2022-11-26T16:00:20.995Z,21.58
2022-11-26T16:02:51.427Z,21.00
2022-11-26T16:05:28.580Z,24.50
2022-11-26T16:08:00.330Z,27.13
2022-11-26T16:10:30.942Z,20.60
2022-11-26T16:13:09.457Z,20.05
2022-11-26T16:15:37.329Z,18.00
2022-11-26T16:18:14.995Z,23.00
2022-11-26T16:20:43.176Z,21.90
2022-11-26T16:23:19.203Z,18.00
2022-11-26T16:26:06.832Z,24.23
2022-11-26T16:28:34.314Z,18.17
2022-11-26T16:31:01.792Z,16.73
2022-11-26T16:33:30.915Z,18.20
2022-11-26T16:35:58.418Z,20.42
2022-11-26T16:38:26.835Z,14.43
2022-11-26T16:40:54.607Z,17.40
2022-11-26T16:43:22.114Z,15.57
2022-11-26T16:45:50.498Z,17.88
2022-11-26T16:48:22.246Z,13.25
2022-11-26T16:50:51.227Z,17.50
2022-11-26T16:53:18.745Z,17.05
2022-11-26T16:55:46.784Z,16.73
2022-11-26T16:58:20.386Z,20.77
2022-11-26T17:00:48.159Z,16.17
2022-11-26T17:03:15.709Z,17.92
2022-11-26T17:05:43.448Z,18.27
2022-11-26T17:08:12.961Z,19.80
2022-11-26T17:10:41.070Z,21.92
2022-11-26T17:13:08.641Z,14.38
2022-11-26T17:15:36.166Z,12.85
2022-11-26T17:18:04.746Z,15.40
2022-11-26T17:20:32.438Z,19.48
2022-11-26T17:22:59.897Z,11.90
2022-11-26T17:25:28.740Z,18.13
2022-11-26T17:27:56.231Z,15.63
2022-11-26T17:30:24.357Z,13.82
2022-11-26T17:32:52.211Z,13.48
2022-11-26T17:35:19.697Z,14.68
2022-11-26T17:37:47.263Z,20.17
2022-11-26T17:40:17.505Z,17.48
2022-11-26T17:42:46.384Z,22.13
2022-11-26T17:45:14.220Z,17.35
2022-11-26T17:47:41.738Z,15.52
2022-11-26T17:50:15.861Z,13.63
2022-11-26T17:52:43.324Z,15.88
2022-11-26T17:55:12.146Z,21.80
2022-11-26T17:57:39.675Z,18.75
2022-11-26T18:00:12.199Z,16.35
2022-11-26T18:02:39.744Z,12.75
2022-11-26T18:05:07.800Z,15.43
2022-11-26T18:07:35.372Z,19.27
2022-11-26T18:10:02.927Z,21.35
2022-11-26T18:12:30.394Z,16.42
2022-11-26T18:14:58.651Z,14.70
2022-11-26T18:17:27.517Z,12.75
2022-11-26T18:19:54.966Z,20.50
2022-11-26T18:22:23.877Z,22.58
2022-11-26T18:24:57.031Z,19.75
2022-11-26T18:27:25.740Z,16.40
2022-11-26T18:29:53.267Z,17.08
2022-11-26T18:32:21.028Z,25.13
2022-11-26T18:34:50.921Z,25.25
2022-11-26T18:37:18.473Z,29.25
2022-11-26T18:39:46.024Z,22.80
2022-11-26T18:45:01.152Z,25.27
2022-11-26T18:47:28.640Z,22.10
2022-11-26T18:49:57.440Z,27.77
2022-11-26T18:52:24.971Z,25.75
2022-11-26T18:54:52.412Z,23.95
2022-11-26T18:57:19.881Z,27.63
2022-11-26T18:59:47.382Z,27.35
2022-11-26T19:02:14.912Z,28.30
2022-11-26T19:04:42.672Z,24.50
2022-11-26T19:07:13.764Z,22.42
2022-11-26T19:12:09.339Z,31.58
2022-11-26T19:14:36.877Z,28.00
2022-11-26T19:17:04.617Z,22.25
2022-11-26T19:19:33.059Z,28.15
2022-11-26T19:22:01.645Z,29.73
2022-11-26T19:24:31.122Z,32.45
2022-11-26T19:26:58.721Z,26.80
2022-11-26T19:29:26.304Z,28.23
2022-11-26T19:31:53.848Z,30.35
2022-11-26T19:34:21.346Z,29.10
2022-11-26T19:36:49.314Z,30.20
2022-11-26T19:39:17.107Z,25.38
2022-11-26T19:41:45.971Z,26.60
2022-11-26T19:44:13.405Z,25.05
2022-11-26T19:46:41.796Z,25.73
2022-11-26T19:49:11.627Z,25.80
2022-11-26T19:51:39.377Z,23.95
2022-11-26T19:54:07.318Z,21.17
2022-11-26T19:56:35.231Z,30.52
2022-11-26T19:59:04.128Z,25.35
2022-11-26T20:01:32.611Z,24.50
2022-11-26T20:04:01.134Z,28.30
2022-11-26T20:06:29.306Z,23.65
2022-11-26T20:08:58.042Z,17.70
2022-11-26T20:11:25.713Z,19.10
2022-11-26T20:13:53.230Z,21.23
2022-11-26T20:16:23.090Z,23.85
2022-11-26T20:18:50.685Z,29.02
2022-11-26T20:21:20.505Z,21.00
2022-11-26T20:23:48.031Z,27.90
2022-11-26T20:26:17.047Z,20.40
2022-11-26T20:28:44.693Z,22.65
2022-11-26T20:31:13.801Z,22.27
2022-11-26T20:33:42.722Z,27.33
2022-11-26T20:36:16.296Z,24.08
2022-11-26T20:38:43.803Z,24.38
2022-11-26T20:41:12.160Z,21.50
2022-11-26T20:43:39.636Z,25.35
2022-11-26T20:46:08.311Z,28.98
2022-11-26T20:48:36.679Z,25.15
2022-11-26T20:51:06.370Z,23.10
2022-11-26T20:53:34.652Z,27.65
2022-11-26T20:56:02.837Z,35.20
2022-11-26T20:58:30.710Z,33.90
2022-11-26T21:00:58.606Z,37.10
2022-11-26T21:03:26.818Z,32.33
2022-11-26T21:05:54.695Z,41.33
2022-11-26T21:08:24.055Z,33.65
2022-11-26T21:10:51.802Z,35.03
2022-11-26T21:13:20.002Z,35.67
2022-11-26T21:15:48.344Z,28.67
2022-11-26T21:18:15.858Z,24.48
2022-11-26T21:20:43.961Z,27.55
2022-11-26T21:23:12.257Z,32.15
2022-11-26T21:25:42.274Z,28.60
2022-11-26T21:28:10.369Z,39.92
2022-11-26T21:30:38.463Z,35.08
2022-11-26T21:33:09.500Z,44.55
2022-11-26T21:35:37.980Z,41.72
2022-11-26T21:38:06.424Z,27.40
2022-11-26T21:40:34.257Z,28.67
2022-11-26T21:43:03.157Z,30.13
2022-11-26T21:45:30.645Z,30.08
2022-11-26T21:47:58.142Z,26.15
2022-11-26T21:50:25.603Z,27.08
2022-11-26T21:52:53.138Z,24.65
2022-11-26T21:55:22.048Z,29.02
2022-11-26T21:57:49.496Z,24.38
2022-11-26T22:00:18.750Z,25.75
2022-11-26T22:02:47.696Z,36.97
2022-11-26T22:05:15.244Z,26.92
2022-11-26T22:07:42.904Z,26.92
2022-11-26T22:10:11.082Z,27.38
2022-11-26T22:12:38.549Z,29.13
2022-11-26T22:15:06.444Z,23.60
2022-11-26T22:17:33.924Z,28.23
2022-11-26T22:20:03.303Z,26.80
2022-11-26T22:22:30.925Z,37.63
2022-11-26T22:24:58.428Z,28.17
2022-11-26T22:27:25.882Z,32.80
2022-11-26T22:29:53.387Z,27.48
2022-11-26T22:32:20.824Z,35.10
2022-11-26T22:34:48.290Z,26.00
2022-11-26T22:37:17.136Z,22.55
2022-11-26T22:39:44.575Z,20.83
2022-11-26T22:42:13.753Z,27.02
2022-11-26T22:44:41.268Z,25.55
2022-11-26T22:47:08.898Z,22.33
2022-11-26T22:49:37.172Z,24.73
2022-11-26T22:52:04.879Z,26.70
2022-11-26T22:54:33.727Z,23.23
2022-11-26T22:57:01.257Z,26.33
2022-11-26T22:59:28.770Z,35.15
2022-11-26T23:01:56.293Z,20.83
2022-11-26T23:04:23.863Z,31.25
2022-11-26T23:06:51.349Z,28.10
2022-11-26T23:09:19.244Z,31.50
2022-11-26T23:11:48.087Z,22.13
2022-11-26T23:14:15.568Z,25.33
2022-11-26T23:16:43.878Z,26.80
2022-11-26T23:19:14.134Z,28.75
2022-11-26T23:21:42.741Z,33.40
2022-11-26T23:24:10.643Z,29.65
2022-11-26T23:26:39.223Z,22.20
2022-11-26T23:29:09.044Z,28.33
2022-11-26T23:31:37.307Z,31.17
2022-11-26T23:34:05.304Z,28.42
2022-11-26T23:36:32.867Z,29.05
2022-11-26T23:39:01.210Z,20.70
2022-11-26T23:41:28.737Z,27.48
2022-11-26T23:43:56.376Z,26.75
2022-11-26T23:46:26.594Z,27.65
2022-11-26T23:48:54.588Z,28.40
2022-11-26T23:51:23.788Z,20.52
2022-11-26T23:53:51.694Z,23.60
2022-11-26T23:56:20.138Z,24.75
2022-11-26T23:58:49.258Z,26.20
